Time;durP1;ratioP1;P1;durP2;ratioP2;P2;SDS_P1;SDS_P2;PMS_P1;PMS_P2;Temp;Humidity;BMP_temperature;BMP_pressure;BME280_temperature;BME280_humidity;BME280_pressure;Samples;Min_cycle;Max_cycle;Signal;HPM_P1;HPM_P2
2021/03/18 00:01:47;;;;;;;10.27;2.60;;;5.20;88.00;;;;;;5054551;28;20158;-86
2021/03/18 00:04:19;;;;;;;7.90;2.70;;;5.10;88.40;;;;;;5054505;28;20032;-86
2021/03/18 00:06:46;;;;;;;8.73;2.60;;;5.20;88.50;;;;;;5054475;28;20111;-85
2021/03/18 00:09:16;;;;;;;7.80;2.87;;;5.20;88.00;;;;;;5054371;28;20046;-85
2021/03/18 00:11:42;;;;;;;;;;;5.20;88.10;;;;;;5055236;28;20020;-86
2021/03/18 00:14:13;;;;;;;15.53;2.60;;;5.20;88.30;;;;;;5073089;28;20292;-86
2021/03/18 00:16:40;;;;;;;8.07;2.60;;;5.10;89.00;;;;;;5055180;28;20544;-85
2021/03/18 00:19:06;;;;;;;9.13;2.90;;;5.10;89.70;;;;;;5054931;28;20028;-85
2021/03/18 00:21:31;;;;;;;8.17;2.77;;;5.00;89.80;;;;;;5055122;28;20062;-86
2021/03/18 00:23:57;;;;;;;9.07;3.10;;;5.00;89.70;;;;;;5057203;28;20134;-86
2021/03/18 00:26:25;;;;;;;10.27;3.20;;;5.10;89.50;;;;;;5058843;28;20416;-86
2021/03/18 00:28:51;;;;;;;12.20;3.00;;;5.10;89.10;;;;;;5059209;28;20056;-86
2021/03/18 00:31:30;;;;;;;5.40;2.40;;;5.00;89.10;;;;;;5076668;28;20020;-86
2021/03/18 00:33:56;;;;;;;6.18;2.58;;;5.00;89.40;;;;;;5058960;28;20017;-85
2021/03/18 00:36:23;;;;;;;9.10;2.90;;;5.00;89.50;;;;;;5076206;28;20090;-88
2021/03/18 00:38:50;;;;;;;8.23;2.83;;;4.90;89.70;;;;;;5058422;28;20025;-86
2021/03/18 00:41:16;;;;;;;9.70;3.33;;;4.90;89.70;;;;;;5058525;28;20050;-85
2021/03/18 00:43:42;;;;;;;9.03;3.20;;;4.90;89.60;;;;;;5058603;28;20366;-85
2021/03/18 00:46:08;;;;;;;13.00;3.23;;;4.90;90.00;;;;;;5058350;28;20439;-85
2021/03/18 00:48:35;;;;;;;8.97;3.07;;;4.90;89.90;;;;;;5074962;28;20042;-86
2021/03/18 00:51:10;;;;;;;9.83;3.20;;;4.90;90.00;;;;;;5058301;28;20020;-86
2021/03/18 00:53:39;;;;;;;8.07;2.90;;;4.90;89.80;;;;;;5058181;28;20071;-86
2021/03/18 00:56:12;;;;;;;14.98;3.47;;;4.80;89.90;;;;;;5058255;28;20034;-86
2021/03/18 00:58:39;;;;;;;8.93;3.10;;;4.70;90.10;;;;;;5058307;28;20504;-86
2021/03/18 01:01:05;;;;;;;10.37;3.27;;;4.80;90.10;;;;;;5058034;28;20029;-86
2021/03/18 01:03:32;;;;;;;8.80;3.13;;;4.70;90.10;;;;;;5057958;28;20032;-86
2021/03/18 01:06:11;;;;;;;12.13;3.00;;;4.70;90.00;;;;;;5057958;28;20045;-85
2021/03/18 01:08:38;;;;;;;9.93;3.10;;;4.70;90.10;;;;;;5057569;28;20037;-85
2021/03/18 01:11:05;;;;;;;9.93;3.00;;;4.60;90.30;;;;;;5075838;28;20035;-86
2021/03/18 01:13:31;;;;;;;14.70;3.17;;;4.60;90.40;;;;;;5057765;28;20120;-85
2021/03/18 01:16:23;;;;;;;7.53;3.17;;;4.60;90.20;;;;;;5067478;22;20097;-85
2021/03/18 01:18:52;;;;;;;8.33;3.20;;;4.60;90.30;;;;;;5037269;28;20098;-86
2021/03/18 01:21:20;;;;;;;9.05;2.92;;;4.60;90.40;;;;;;5037108;28;20044;-85
2021/03/18 01:23:47;;;;;;;11.73;3.53;;;4.50;90.40;;;;;;5055114;28;20102;-85
2021/03/18 01:26:13;;;;;;;7.73;3.03;;;4.60;90.40;;;;;;5062005;28;20048;-85
2021/03/18 01:28:40;;;;;;;12.17;3.43;;;4.50;90.50;;;;;;5057350;28;20038;-85
2021/03/18 01:31:07;;;;;;;11.93;3.03;;;4.40;90.60;;;;;;5056438;28;20473;-85
2021/03/18 01:33:34;;;;;;;11.13;3.90;;;4.40;90.70;;;;;;5075235;28;20013;-85
2021/03/18 01:36:00;;;;;;;7.97;3.30;;;4.50;90.60;;;;;;5073968;28;20096;-85
2021/03/18 01:38:30;;;;;;;12.10;3.30;;;4.40;90.50;;;;;;5057004;28;20108;-85
2021/03/18 01:40:58;;;;;;;;;;;4.50;90.60;;;;;;5056732;28;20111;-85
2021/03/18 01:43:25;;;;;;;8.60;3.50;;;4.40;90.70;;;;;;5056377;28;19911;-85
2021/03/18 01:45:50;;;;;;;11.37;3.33;;;4.30;91.00;;;;;;5056314;28;20507;-85
2021/03/18 01:48:16;;;;;;;10.60;3.07;;;4.30;91.10;;;;;;5074214;28;20021;-85
2021/03/18 01:50:45;;;;;;;9.17;3.23;;;4.30;91.10;;;;;;5055800;28;20077;-85
2021/03/18 01:53:11;;;;;;;9.05;3.40;;;4.30;91.10;;;;;;5074930;28;20029;-85
2021/03/18 01:55:42;;;;;;;11.17;3.30;;;4.20;91.20;;;;;;5056662;28;20470;-85
2021/03/18 01:58:10;;;;;;;9.30;3.40;;;4.20;91.30;;;;;;5074815;28;20052;-86
2021/03/18 02:00:39;;;;;;;9.67;3.47;;;4.20;91.50;;;;;;5073720;28;20528;-85
2021/03/18 02:03:05;;;;;;;10.48;4.32;;;4.20;91.30;;;;;;5074476;28;20025;-85
2021/03/18 02:05:32;;;;;;;9.97;3.60;;;4.20;91.40;;;;;;5056822;28;20473;-84
2021/03/18 02:07:58;;;;;;;10.40;3.80;;;4.20;91.30;;;;;;5056573;28;20035;-85
2021/03/18 02:10:28;;;;;;;11.23;3.23;;;4.20;91.30;;;;;;5056120;28;20098;-85
2021/03/18 02:12:55;;;;;;;14.73;3.77;;;4.30;91.30;;;;;;5056140;28;20104;-86
2021/03/18 02:15:28;;;;;;;9.33;3.47;;;4.30;91.30;;;;;;5056434;28;20432;-85
2021/03/18 02:18:09;;;;;;;12.03;4.13;;;4.30;91.30;;;;;;5056375;28;20032;-85
2021/03/18 02:21:01;;;;;;;11.10;3.60;;;4.30;91.30;;;;;;5055319;28;20028;-85
2021/03/18 02:23:53;;;;;;;9.50;3.57;;;4.20;91.40;;;;;;5056158;28;20467;-85
2021/03/18 02:26:37;;;;;;;14.03;3.80;;;4.20;91.50;;;;;;5056041;28;20071;-86
2021/03/18 02:29:40;;;;;;;9.20;3.47;;;4.20;91.40;;;;;;5055593;28;20078;-85
2021/03/18 02:32:23;;;;;;;11.20;3.90;;;4.20;91.50;;;;;;5073872;28;20017;-85
2021/03/18 02:35:17;;;;;;;12.87;3.60;;;4.10;91.70;;;;;;5056035;28;20031;-85
2021/03/18 02:37:50;;;;;;;15.03;3.37;;;4.10;92.00;;;;;;5055902;28;20024;-85
2021/03/18 02:40:20;;;;;;;12.43;3.53;;;4.10;92.20;;;;;;5055546;28;20473;-85
2021/03/18 02:42:53;;;;;;;12.17;3.87;;;4.10;92.20;;;;;;5074175;28;20104;-86
2021/03/18 02:45:20;;;;;;;12.13;3.67;;;4.00;92.20;;;;;;5056159;28;20446;-85
2021/03/18 02:47:49;;;;;;;10.17;3.20;;;4.00;92.40;;;;;;5055827;28;20029;-85
2021/03/18 02:50:17;;;;;;;11.80;3.53;;;4.00;92.00;;;;;;5055767;28;20017;-85
2021/03/18 02:52:46;;;;;;;8.63;3.10;;;3.90;92.10;;;;;;5057355;28;20056;-85
2021/03/18 02:55:12;;;;;;;9.95;3.65;;;3.80;92.40;;;;;;5058048;28;20055;-85
2021/03/18 02:57:39;;;;;;;12.07;4.07;;;3.80;92.30;;;;;;5058143;28;20028;-86
2021/03/18 03:00:08;;;;;;;8.33;3.70;;;3.70;92.40;;;;;;5056971;28;20020;-85
2021/03/18 03:02:34;;;;;;;14.43;5.80;;;3.70;92.70;;;;;;5057162;28;20052;-85
2021/03/18 03:05:02;;;;;;;18.50;6.17;;;3.80;92.60;;;;;;5074900;28;20395;-85
2021/03/18 03:07:29;;;;;;;23.57;8.50;;;3.90;92.70;;;;;;5074564;28;20035;-85
2021/03/18 03:09:56;;;;;;;23.60;8.47;;;3.90;92.70;;;;;;5056351;28;20055;-85
2021/03/18 03:12:26;;;;;;;20.57;7.43;;;4.00;92.60;;;;;;5074072;28;20411;-85
2021/03/18 03:14:54;;;;;;;18.30;5.35;;;3.90;92.60;;;;;;5056294;28;20476;-85
2021/03/18 03:17:23;;;;;;;16.50;5.07;;;3.80;92.40;;;;;;5055888;28;20531;-85
2021/03/18 03:19:49;;;;;;;16.75;4.97;;;3.70;92.40;;;;;;5073507;28;20024;-85
2021/03/18 03:22:16;;;;;;;15.37;5.27;;;3.70;92.50;;;;;;5056103;28;20477;-85
2021/03/18 03:24:44;;;;;;;14.60;4.90;;;3.70;92.40;;;;;;5055945;28;20624;-86
2021/03/18 03:27:11;;;;;;;14.03;4.87;;;3.70;92.50;;;;;;5055891;28;20469;-85
2021/03/18 03:29:41;;;;;;;13.43;5.00;;;3.70;92.90;;;;;;5055189;28;20056;-84
2021/03/18 03:32:08;;;;;;;16.17;5.30;;;3.80;92.50;;;;;;5073819;28;20039;-85
2021/03/18 03:34:34;;;;;;;12.00;4.77;;;3.90;92.30;;;;;;5073804;28;20385;-85
2021/03/18 03:37:01;;;;;;;18.37;5.17;;;3.90;92.20;;;;;;5055884;28;20021;-85
2021/03/18 03:39:27;;;;;;;16.20;5.27;;;3.80;92.20;;;;;;5055183;28;20028;-85
2021/03/18 03:41:52;;;;;;;19.57;5.10;;;3.80;92.30;;;;;;5055826;28;20397;-84
2021/03/18 03:44:18;;;;;;;12.23;5.43;;;3.80;92.40;;;;;;5073825;28;20056;-85
2021/03/18 03:46:44;;;;;;;13.07;4.73;;;3.70;92.30;;;;;;5074008;28;20031;-85
2021/03/18 03:49:10;;;;;;;15.43;5.57;;;3.80;92.30;;;;;;5072505;28;20035;-85
2021/03/18 03:52:07;;;;;;;13.37;5.40;;;3.80;92.60;;;;;;5054078;28;20024;-85
2021/03/18 03:54:37;;;;;;;15.20;4.90;;;3.70;92.40;;;;;;5074111;28;20021;-85
2021/03/18 03:57:32;;;;;;;18.40;4.90;;;3.80;92.50;;;;;;5055535;28;20025;-84
2021/03/18 04:00:02;;;;;;;15.87;4.90;;;3.70;92.40;;;;;;5053170;28;20035;-85
2021/03/18 04:02:30;;;;;;;15.05;5.03;;;3.70;92.40;;;;;;5059708;28;20024;-84
2021/03/18 04:04:56;;;;;;;10.17;4.30;;;3.80;92.30;;;;;;5078002;28;20028;-85
2021/03/18 04:07:28;;;;;;;15.13;4.70;;;3.80;92.30;;;;;;5059333;28;20017;-85
2021/03/18 04:09:57;;;;;;;18.37;5.00;;;3.80;92.30;;;;;;5076949;28;20021;-85
2021/03/18 04:12:29;;;;;;;11.82;4.72;;;3.80;92.60;;;;;;5059430;28;20575;-85
2021/03/18 04:14:58;;;;;;;13.93;4.33;;;3.80;92.30;;;;;;5077276;28;20485;-85
2021/03/18 04:17:26;;;;;;;13.27;4.53;;;3.80;92.30;;;;;;5077502;28;20048;-85
2021/03/18 04:19:55;;;;;;;15.67;5.13;;;3.80;92.30;;;;;;5058622;28;20485;-84
2021/03/18 04:22:22;;;;;;;17.10;5.13;;;3.80;92.30;;;;;;5059820;28;20047;-85
2021/03/18 04:24:51;;;;;;;16.87;5.03;;;3.80;92.50;;;;;;5059603;28;20032;-85
2021/03/18 04:27:19;;;;;;;12.07;4.32;;;3.80;92.50;;;;;;5077449;28;20029;-85
2021/03/18 04:29:46;;;;;;;16.30;4.63;;;3.80;92.30;;;;;;5059124;28;20028;-85
2021/03/18 04:32:12;;;;;;;12.83;4.47;;;3.80;92.80;;;;;;5059466;28;20385;-85
2021/03/18 04:34:39;;;;;;;12.47;4.60;;;3.80;92.50;;;;;;5059299;28;20032;-85
2021/03/18 04:37:07;;;;;;;11.57;4.33;;;3.70;92.60;;;;;;5059487;28;20082;-85
2021/03/18 04:39:34;;;;;;;16.77;4.30;;;3.80;92.50;;;;;;5058693;28;20060;-85
2021/03/18 04:42:02;;;;;;;12.67;4.53;;;3.90;92.40;;;;;;5077291;28;20108;-85
2021/03/18 04:44:28;;;;;;;11.43;4.50;;;3.90;92.50;;;;;;5076914;28;20025;-85
2021/03/18 04:46:55;;;;;;;14.93;4.57;;;3.80;92.50;;;;;;5058882;28;20029;-85
2021/03/18 04:49:22;;;;;;;13.93;4.00;;;3.80;92.80;;;;;;5076439;28;20032;-85
2021/03/18 04:51:48;;;;;;;14.37;4.50;;;3.70;92.90;;;;;;5058758;28;20122;-85
2021/03/18 04:54:14;;;;;;;13.80;4.17;;;3.80;92.80;;;;;;5058634;28;20397;-85
2021/03/18 04:56:42;;;;;;;16.20;4.40;;;3.80;92.90;;;;;;5058702;28;20028;-85
2021/03/18 04:59:09;;;;;;;13.10;4.70;;;3.80;92.70;;;;;;5076120;28;20025;-85
2021/03/18 05:01:36;;;;;;;12.33;4.07;;;3.80;92.90;;;;;;5076676;28;20146;-84
2021/03/18 05:04:04;;;;;;;14.63;4.50;;;3.80;93.00;;;;;;5076603;28;20043;-85
2021/03/18 05:06:32;;;;;;;16.50;4.47;;;3.90;92.70;;;;;;5058636;28;20024;-84
2021/03/18 05:09:01;;;;;;;12.97;4.30;;;3.80;92.90;;;;;;5057519;28;20184;-85
2021/03/18 05:11:27;;;;;;;15.27;4.35;;;3.90;92.90;;;;;;5057633;28;20024;-85
2021/03/18 05:13:54;;;;;;;13.30;4.20;;;3.90;92.70;;;;;;5058082;28;20435;-85
2021/03/18 05:16:21;;;;;;;15.23;4.97;;;3.80;92.80;;;;;;5058103;28;20044;-85
2021/03/18 05:18:49;;;;;;;11.80;4.60;;;3.90;92.70;;;;;;5057989;28;20441;-85
2021/03/18 05:21:15;;;;;;;14.60;4.40;;;3.80;92.80;;;;;;5074367;28;20092;-85
2021/03/18 05:23:42;;;;;;;13.03;4.43;;;3.80;93.10;;;;;;5077123;28;20039;-85
2021/03/18 05:26:09;;;;;;;14.57;4.53;;;3.80;93.00;;;;;;5058635;28;20047;-85
2021/03/18 05:28:35;;;;;;;13.97;4.90;;;3.80;93.00;;;;;;5058571;28;20039;-85
2021/03/18 05:31:02;;;;;;;14.07;4.77;;;3.80;92.80;;;;;;5075888;28;20032;-84
2021/03/18 05:33:28;;;;;;;11.43;4.37;;;3.90;92.90;;;;;;5058321;28;20027;-85
2021/03/18 05:35:54;;;;;;;13.23;4.33;;;3.90;92.80;;;;;;5058255;28;20029;-84
2021/03/18 05:38:19;;;;;;;10.97;4.80;;;3.90;92.90;;;;;;5076561;28;20107;-84
2021/03/18 05:40:51;;;;;;;14.57;4.77;;;3.80;93.00;;;;;;5057923;28;20028;-85
2021/03/18 05:43:17;;;;;;;17.77;5.03;;;3.80;93.10;;;;;;5059026;28;20486;-85
2021/03/18 05:45:42;;;;;;;16.20;5.13;;;3.70;93.10;;;;;;5058620;28;20117;-85
2021/03/18 05:48:08;;;;;;;13.07;5.30;;;3.70;93.30;;;;;;5058444;28;20032;-85
2021/03/18 05:50:40;;;;;;;14.73;5.63;;;3.70;93.40;;;;;;5058129;28;20082;-84
2021/03/18 05:53:07;;;;;;;18.03;5.70;;;3.70;93.40;;;;;;5058525;28;20059;-85
2021/03/18 05:55:35;;;;;;;15.00;4.97;;;3.70;93.60;;;;;;5077106;28;20035;-84
2021/03/18 05:58:01;;;;;;;15.27;5.10;;;3.70;93.40;;;;;;5058728;28;20406;-85
2021/03/18 06:00:30;;;;;;;15.43;5.17;;;3.60;93.40;;;;;;5076778;28;20032;-85
2021/03/18 06:02:57;;;;;;;16.70;5.30;;;3.60;93.60;;;;;;5059003;28;20063;-85
2021/03/18 06:05:23;;;;;;;19.80;6.00;;;3.60;93.60;;;;;;5057922;28;20481;-85
2021/03/18 06:07:49;;;;;;;16.00;5.50;;;3.60;93.50;;;;;;5058709;28;20050;-85
2021/03/18 06:10:25;;;;;;;13.77;5.27;;;3.60;93.60;;;;;;5076628;28;20016;-85
2021/03/18 06:12:53;;;;;;;16.63;5.23;;;3.60;93.50;;;;;;5057866;28;20024;-85
2021/03/18 06:15:21;;;;;;;15.10;4.93;;;3.60;93.50;;;;;;5056777;28;20460;-85
2021/03/18 06:17:48;;;;;;;14.00;5.90;;;3.50;93.60;;;;;;5056622;28;20051;-85
2021/03/18 06:20:16;;;;;;;13.23;5.37;;;3.50;93.60;;;;;;5056955;28;20028;-85
2021/03/18 06:22:44;;;;;;;14.25;5.30;;;3.50;93.70;;;;;;5073748;28;20025;-85
2021/03/18 06:25:28;;;;;;;18.37;5.33;;;3.50;93.70;;;;;;5056198;28;20029;-84
2021/03/18 06:28:10;;;;;;;15.83;5.57;;;3.60;93.60;;;;;;5056108;28;20098;-85
2021/03/18 06:30:38;;;;;;;18.73;6.20;;;3.60;93.60;;;;;;5055652;28;20032;-84
2021/03/18 06:33:24;;;;;;;14.63;5.40;;;3.60;93.70;;;;;;5056198;28;20047;-85
2021/03/18 06:35:50;;;;;;;13.60;4.93;;;3.70;93.50;;;;;;5055968;28;20025;-85
2021/03/18 06:38:16;;;;;;;13.90;5.33;;;3.70;93.30;;;;;;5056512;28;20056;-85
2021/03/18 06:40:44;;;;;;;17.33;5.07;;;3.70;93.20;;;;;;5073404;28;20055;-85
2021/03/18 06:43:11;;;;;;;18.50;5.93;;;3.70;94.00;;;;;;5057688;28;20021;-85
2021/03/18 06:45:42;;;;;;;12.20;4.70;;;3.60;94.00;;;;;;5057520;28;20024;-85
2021/03/18 06:48:10;;;;;;;10.77;4.97;;;3.60;94.10;;;;;;5075932;28;20074;-86
2021/03/18 06:50:41;;;;;;;14.47;5.63;;;3.60;94.30;;;;;;5072988;28;20400;-85
2021/03/18 06:53:30;;;;;;;15.73;5.57;;;3.70;94.10;;;;;;5073507;28;20096;-85
2021/03/18 06:55:56;;;;;;;16.03;5.37;;;3.60;94.40;;;;;;5055965;28;20507;-84
2021/03/18 06:58:25;;;;;;;13.83;5.63;;;3.60;94.10;;;;;;5073287;28;20262;-85
2021/03/18 07:00:51;;;;;;;21.50;6.28;;;3.60;94.30;;;;;;5072769;28;20489;-85
2021/03/18 07:03:34;;;;;;;18.50;6.70;;;3.60;94.30;;;;;;5057122;28;20059;-83
2021/03/18 07:06:03;;;;;;;16.07;5.80;;;3.70;94.70;;;;;;5080705;28;20039;-82
2021/03/18 07:08:38;;;;;;;12.73;5.07;;;3.60;94.60;;;;;;5062698;28;20056;-83
2021/03/18 07:11:22;;;;;;;18.73;6.70;;;3.70;94.30;;;;;;5080250;28;20033;-83
2021/03/18 07:13:49;;;;;;;17.17;7.30;;;3.70;94.30;;;;;;5081853;28;20023;-83
2021/03/18 07:16:16;;;;;;;13.07;6.27;;;3.80;94.30;;;;;;5080744;22;20405;-86
2021/03/18 07:18:53;;;;;;;11.83;5.83;;;3.90;94.30;;;;;;5034590;28;20036;-85
2021/03/18 07:21:19;;;;;;;15.23;5.40;;;3.90;94.00;;;;;;5034709;28;20021;-85
2021/03/18 07:23:47;;;;;;;19.83;5.80;;;3.90;93.90;;;;;;5052373;28;20027;-85
2021/03/18 07:26:22;;;;;;;12.53;4.70;;;3.90;94.30;;;;;;5037591;28;20020;-85
2021/03/18 07:28:49;;;;;;;15.70;5.67;;;3.90;94.10;;;;;;5054095;28;20116;-85
2021/03/18 07:31:16;;;;;;;14.23;6.13;;;4.00;93.90;;;;;;5053809;28;20128;-86
2021/03/18 07:33:43;;;;;;;17.30;5.50;;;4.00;94.00;;;;;;5053535;28;20017;-86
2021/03/18 07:36:10;;;;;;;17.77;6.73;;;4.00;94.00;;;;;;5054271;28;20051;-85
2021/03/18 07:38:37;;;;;;;15.80;6.03;;;3.90;94.10;;;;;;5054191;28;20036;-86
2021/03/18 07:41:10;;;;;;;16.83;5.67;;;4.00;94.20;;;;;;5053628;28;20047;-86
2021/03/18 07:43:37;;;;;;;18.83;5.80;;;4.10;94.10;;;;;;5054068;28;20040;-86
2021/03/18 07:46:04;;;;;;;12.67;5.83;;;4.20;93.90;;;;;;5054191;28;20021;-85
2021/03/18 07:48:33;;;;;;;15.03;6.03;;;4.20;93.60;;;;;;5054217;28;20024;-85
2021/03/18 07:51:00;;;;;;;16.48;5.75;;;4.10;93.80;;;;;;5053616;28;20577;-85
2021/03/18 07:53:27;;;;;;;17.37;6.77;;;4.10;94.10;;;;;;5072036;28;20059;-86
2021/03/18 07:55:53;;;;;;;18.30;6.43;;;4.10;94.00;;;;;;5053981;28;20024;-86
2021/03/18 07:58:39;;;;;;;15.83;6.33;;;4.10;93.90;;;;;;5054337;28;20473;-85
2021/03/18 08:01:05;;;;;;;18.87;6.20;;;4.20;93.80;;;;;;5053579;28;20029;-85
2021/03/18 08:03:31;;;;;;;14.67;6.20;;;4.20;93.70;;;;;;5071824;28;20177;-85
2021/03/18 08:05:58;;;;;;;18.17;6.83;;;4.30;94.10;;;;;;5053963;28;20179;-85
2021/03/18 08:08:33;;;;;;;16.80;6.30;;;4.30;93.90;;;;;;5054013;28;20082;-85
2021/03/18 08:11:05;;;;;;;20.97;7.00;;;4.40;93.90;;;;;;5053564;28;20052;-85
2021/03/18 08:13:32;;;;;;;16.57;6.37;;;4.40;93.60;;;;;;5053987;28;20020;-86
2021/03/18 08:15:58;;;;;;;14.80;6.70;;;4.30;93.70;;;;;;5053870;28;20028;-86
2021/03/18 08:18:23;;;;;;;19.27;6.43;;;4.40;93.60;;;;;;5072181;28;20090;-86
2021/03/18 08:20:49;;;;;;;18.30;6.57;;;4.40;93.80;;;;;;5054211;28;20028;-86
2021/03/18 08:23:24;;;;;;;17.27;7.10;;;4.40;93.60;;;;;;5053961;28;20123;-86
2021/03/18 08:26:01;;;;;;;20.83;7.23;;;4.50;94.00;;;;;;5053987;28;20025;-85
2021/03/18 08:28:48;;;;;;;18.70;7.50;;;4.60;93.70;;;;;;5071718;28;20094;-86
2021/03/18 08:31:23;;;;;;;20.23;7.17;;;4.60;93.70;;;;;;5071516;28;20025;-84
2021/03/18 08:33:50;;;;;;;14.73;6.07;;;4.60;93.70;;;;;;5071725;28;20020;-86
2021/03/18 08:36:22;;;;;;;17.33;6.73;;;4.70;93.70;;;;;;5053565;28;20024;-86
2021/03/18 08:38:57;;;;;;;15.90;6.03;;;4.70;93.80;;;;;;5053559;28;20393;-85
2021/03/18 08:41:25;;;;;;;16.47;6.73;;;4.80;93.60;;;;;;5053591;28;20691;-86
2021/03/18 08:44:17;;;;;;;13.73;6.60;;;4.80;93.70;;;;;;5053943;28;20051;-85
2021/03/18 08:46:48;;;;;;;18.60;6.40;;;4.80;93.80;;;;;;5054451;28;20411;-85
2021/03/18 08:49:38;;;;;;;18.10;6.10;;;4.80;93.60;;;;;;5056424;28;20044;-86
2021/03/18 08:52:06;;;;;;;13.87;5.43;;;4.80;93.50;;;;;;5075349;28;20443;-86
2021/03/18 08:54:41;;;;;;;15.67;5.80;;;4.90;93.60;;;;;;5056951;28;20078;-86
2021/03/18 08:57:13;;;;;;;13.83;5.80;;;4.90;93.40;;;;;;5057118;28;20025;-85
2021/03/18 08:59:45;;;;;;;14.97;5.73;;;4.90;93.50;;;;;;5056731;28;20108;-85
2021/03/18 09:02:13;;;;;;;18.63;6.20;;;5.00;93.20;;;;;;5057717;28;20052;-86
2021/03/18 09:04:45;;;;;;;15.43;6.17;;;4.90;92.90;;;;;;5057172;28;20083;-85
2021/03/18 09:07:13;;;;;;;16.33;5.77;;;4.90;93.10;;;;;;5056959;28;20477;-86
2021/03/18 09:09:40;;;;;;;19.43;6.03;;;4.90;93.00;;;;;;5056585;28;20021;-85
2021/03/18 09:12:07;;;;;;;12.13;4.77;;;4.90;92.80;;;;;;5056973;28;20027;-86
2021/03/18 09:14:33;;;;;;;19.53;5.00;;;4.90;92.80;;;;;;5075061;28;20047;-86
2021/03/18 09:17:08;;;;;;;12.87;4.00;;;4.90;93.00;;;;;;5056537;28;20120;-86
2021/03/18 09:19:35;;;;;;;17.27;3.50;;;4.90;92.80;;;;;;5056109;28;20046;-85
2021/03/18 09:22:01;;;;;;;14.67;3.40;;;4.90;92.50;;;;;;5056592;28;20603;-85
2021/03/18 09:24:35;;;;;;;7.07;3.53;;;4.90;92.50;;;;;;5056527;28;20507;-86
2021/03/18 09:27:11;;;;;;;10.80;3.60;;;4.90;92.60;;;;;;5074715;28;20031;-86
2021/03/18 09:29:37;;;;;;;13.20;3.87;;;5.00;92.50;;;;;;5056206;28;20027;-86
2021/03/18 09:32:05;;;;;;;12.70;4.67;;;5.00;92.30;;;;;;5085927;28;20017;-86
2021/03/18 09:34:36;;;;;;;11.70;4.33;;;5.00;92.40;;;;;;5064150;28;20024;-86
2021/03/18 09:37:03;;;;;;;13.13;4.40;;;5.10;92.70;;;;;;5057230;28;20396;-86
2021/03/18 09:39:29;;;;;;;12.90;4.77;;;5.10;92.60;;;;;;5074167;28;20035;-85
2021/03/18 09:42:02;;;;;;;11.47;4.70;;;5.10;92.40;;;;;;5056370;28;20435;-86
2021/03/18 09:44:30;;;;;;;13.63;6.13;;;5.10;92.00;;;;;;5074467;28;20044;-85
2021/03/18 09:46:59;;;;;;;13.50;5.40;;;5.10;92.00;;;;;;5056410;28;20028;-85
2021/03/18 09:49:30;;;;;;;17.73;5.00;;;5.20;92.20;;;;;;5073659;28;20024;-86
2021/03/18 09:51:55;;;;;;;11.93;5.57;;;5.20;92.20;;;;;;5056054;28;20029;-86
2021/03/18 09:54:23;;;;;;;10.30;4.13;;;5.30;92.00;;;;;;5055950;28;20086;-86
2021/03/18 09:56:53;;;;;;;10.70;3.93;;;5.20;91.10;;;;;;5055152;28;20074;-86
2021/03/18 09:59:23;;;;;;;11.97;3.93;;;5.30;91.80;;;;;;5055396;28;20440;-86
2021/03/18 10:01:49;;;;;;;12.73;4.23;;;5.40;91.50;;;;;;5056254;28;20075;-85
2021/03/18 10:04:17;;;;;;;13.30;4.50;;;5.40;91.50;;;;;;5056011;28;20120;-86
2021/03/18 10:06:57;;;;;;;8.77;4.60;;;5.30;91.10;;;;;;5055805;28;20036;-86
2021/03/18 10:09:27;;;;;;;9.50;4.07;;;5.30;91.20;;;;;;5055151;28;20119;-85
2021/03/18 10:11:53;;;;;;;12.73;5.47;;;5.30;91.20;;;;;;5055650;28;20032;-86
2021/03/18 10:14:20;;;;;;;16.43;5.40;;;5.30;91.00;;;;;;5055868;28;20035;-86
2021/03/18 10:16:47;;;;;;;12.53;4.63;;;5.20;91.20;;;;;;5055730;28;20123;-86
2021/03/18 10:19:14;;;;;;;11.90;4.83;;;5.20;91.40;;;;;;5073044;28;20454;-85
2021/03/18 10:21:40;;;;;;;8.37;4.77;;;5.20;91.00;;;;;;5073487;28;20020;-87
2021/03/18 10:24:09;;;;;;;11.40;5.77;;;5.20;91.20;;;;;;5072229;28;20051;-87
2021/03/18 10:26:35;;;;;;;16.50;5.10;;;5.20;91.20;;;;;;5055419;28;20033;-85
2021/03/18 10:29:03;;;;;;;18.90;5.97;;;5.30;91.20;;;;;;5054606;28;20634;-86
2021/03/18 10:31:29;;;;;;;13.63;6.10;;;5.40;91.00;;;;;;5055446;28;20044;-85
2021/03/18 10:33:55;;;;;;;14.90;5.70;;;5.50;90.50;;;;;;5073239;28;20025;-85
2021/03/18 10:36:41;;;;;;;11.57;4.03;;;5.50;90.20;;;;;;5073140;28;20373;-86
2021/03/18 10:39:09;;;;;;;12.03;4.30;;;5.40;90.00;;;;;;5054614;28;20029;-86
2021/03/18 10:41:55;;;;;;;21.10;7.27;;;5.40;90.20;;;;;;5073509;28;20037;-86
2021/03/18 10:44:32;;;;;;;24.73;7.00;;;5.40;90.00;;;;;;5073051;28;20048;-86
2021/03/18 10:47:17;;;;;;;19.53;6.80;;;5.40;90.40;;;;;;5055244;28;20029;-86
2021/03/18 10:50:00;;;;;;;23.17;7.17;;;5.50;88.40;;;;;;5054679;28;20542;-86
2021/03/18 10:52:26;;;;;;;18.83;6.30;;;5.60;87.90;;;;;;5055073;28;20020;-86
2021/03/18 10:54:56;;;;;;;11.47;4.30;;;5.70;86.60;;;;;;5055091;28;20016;-86
2021/03/18 10:57:23;;;;;;;12.43;4.80;;;5.70;85.80;;;;;;5072802;28;20028;-85
2021/03/18 11:00:05;;;;;;;14.00;4.17;;;5.80;85.80;;;;;;5054838;28;20070;-85
2021/03/18 11:02:31;;;;;;;19.57;5.77;;;5.80;85.00;;;;;;5054842;28;20024;-86
2021/03/18 11:04:59;;;;;;;11.67;4.37;;;5.80;84.50;;;;;;5072755;28;20017;-85
2021/03/18 11:08:07;;;;;;;11.03;4.40;;;5.70;84.60;;;;;;5054726;28;20489;-85
2021/03/18 11:10:40;;;;;;;18.67;6.47;;;5.80;86.20;;;;;;5053827;28;20123;-86
2021/03/18 11:13:09;;;;;;;19.43;6.47;;;5.80;86.80;;;;;;5055194;28;20107;-85
2021/03/18 11:15:48;;;;;;;13.57;4.20;;;5.80;87.10;;;;;;5054887;28;20025;-85
2021/03/18 11:18:15;;;;;;;11.13;3.13;;;5.80;86.60;;;;;;5072678;28;20493;-86
2021/03/18 11:20:43;;;;;;;11.83;3.70;;;5.80;84.10;;;;;;5054090;28;20027;-86
2021/03/18 11:23:11;;;;;;;14.73;5.10;;;5.90;84.70;;;;;;5054621;28;20389;-86
2021/03/18 11:25:37;;;;;;;13.87;4.00;;;5.80;86.10;;;;;;5073054;28;20074;-87
2021/03/18 11:28:03;;;;;;;16.17;5.47;;;5.80;84.50;;;;;;5054290;28;20052;-86
2021/03/18 11:30:36;;;;;;;22.43;7.53;;;5.70;85.60;;;;;;5053907;28;20020;-86
2021/03/18 11:33:14;;;;;;;16.07;6.43;;;5.80;86.20;;;;;;5054797;28;20031;-87
2021/03/18 11:35:46;;;;;;;9.90;4.50;;;5.80;87.10;;;;;;5054434;28;20416;-86
2021/03/18 11:38:12;;;;;;;16.27;5.40;;;5.90;88.10;;;;;;5054220;28;20027;-86
2021/03/18 11:40:38;;;;;;;17.73;5.50;;;5.80;88.40;;;;;;5071920;28;20104;-85
2021/03/18 11:43:05;;;;;;;12.17;4.00;;;5.80;89.20;;;;;;5054086;28;20107;-86
2021/03/18 11:45:31;;;;;;;10.13;3.80;;;5.80;90.10;;;;;;5072403;28;20048;-85
2021/03/18 11:47:57;;;;;;;11.80;4.07;;;5.70;90.90;;;;;;5054345;28;20083;-86
2021/03/18 11:50:23;;;;;;;11.03;4.20;;;5.70;91.30;;;;;;5054059;28;20485;-85
2021/03/18 11:52:48;;;;;;;20.93;6.87;;;5.70;91.60;;;;;;5054964;28;20116;-85
2021/03/18 11:55:14;;;;;;;12.77;4.73;;;5.70;91.70;;;;;;5072380;28;20531;-85
2021/03/18 11:57:40;;;;;;;11.90;4.33;;;5.60;92.10;;;;;;5054517;28;20027;-85
2021/03/18 12:00:09;;;;;;;13.03;4.80;;;5.70;92.60;;;;;;5070503;28;20387;-86
2021/03/18 12:02:35;;;;;;;12.38;4.00;;;5.70;92.90;;;;;;5072184;28;20095;-86
2021/03/18 12:05:00;;;;;;;10.97;4.33;;;5.70;92.70;;;;;;5072021;28;20512;-86
2021/03/18 12:07:26;;;;;;;13.50;5.90;;;5.70;92.90;;;;;;5054197;28;20027;-85
2021/03/18 12:09:52;;;;;;;11.73;4.50;;;5.70;93.50;;;;;;5053609;28;20401;-86
2021/03/18 12:12:18;;;;;;;14.23;5.40;;;5.70;93.60;;;;;;5054140;28;20111;-86
2021/03/18 12:14:43;;;;;;;10.73;5.00;;;5.70;93.30;;;;;;5054303;28;20495;-85
2021/03/18 12:17:09;;;;;;;9.40;5.10;;;5.70;93.40;;;;;;5053975;28;20047;-86
2021/03/18 12:19:35;;;;;;;10.07;4.53;;;5.70;93.80;;;;;;5055602;28;20120;-86
2021/03/18 12:22:00;;;;;;;11.43;5.10;;;5.60;93.20;;;;;;5075876;28;20063;-86
2021/03/18 12:24:26;;;;;;;11.87;5.27;;;5.60;93.50;;;;;;5058021;28;20040;-86
2021/03/18 12:26:52;;;;;;;19.43;6.53;;;5.60;93.60;;;;;;5075189;28;20472;-86
2021/03/18 12:29:17;;;;;;;13.60;5.27;;;5.60;93.90;;;;;;5057193;28;20041;-85
2021/03/18 12:31:46;;;;;;;12.30;5.57;;;5.60;93.80;;;;;;5075540;28;20051;-86
2021/03/18 12:34:12;;;;;;;20.80;7.93;;;5.50;93.80;;;;;;5057739;28;20028;-86
2021/03/18 12:36:38;;;;;;;17.47;7.47;;;5.50;93.90;;;;;;5075400;28;20027;-86
2021/03/18 12:39:04;;;;;;;20.30;7.20;;;5.60;94.00;;;;;;5056956;28;20127;-86
2021/03/18 12:41:34;;;;;;;14.90;6.50;;;5.60;93.90;;;;;;5057461;28;20029;-86
2021/03/18 12:43:59;;;;;;;16.38;6.35;;;5.50;94.20;;;;;;5057482;28;20047;-85
2021/03/18 12:46:25;;;;;;;10.07;6.10;;;5.50;94.00;;;;;;5075203;28;20473;-86
2021/03/18 12:48:52;;;;;;;19.13;7.40;;;5.50;94.00;;;;;;5074947;28;20024;-86
2021/03/18 12:51:18;;;;;;;16.33;6.50;;;5.60;94.20;;;;;;5075101;28;20029;-85
2021/03/18 12:53:43;;;;;;;23.53;8.97;;;5.50;93.90;;;;;;5057362;28;20028;-85
2021/03/18 12:56:09;;;;;;;14.07;5.87;;;5.40;94.30;;;;;;5057414;28;20487;-86
2021/03/18 12:58:35;;;;;;;18.60;8.03;;;5.40;94.50;;;;;;5057480;28;20089;-86
2021/03/18 13:01:01;;;;;;;23.77;11.27;;;5.40;95.00;;;;;;5056567;28;20029;-86